createdAt,value
2023-01-12T00:00:41.749Z,100860.09
2023-01-12T00:02:43.538Z,100860.63
2023-01-12T00:04:45.717Z,100853.34
2023-01-12T00:06:48.061Z,100856.34
2023-01-12T00:08:51.249Z,100861.41
2023-01-12T00:10:55.761Z,100854.16
2023-01-12T00:12:58.181Z,100859.00
2023-01-12T00:14:59.832Z,100852.28
2023-01-12T00:17:03.646Z,100858.44
2023-01-12T00:19:08.649Z,100859.00
2023-01-12T00:21:10.428Z,100846.59
2023-01-12T00:23:12.144Z,100847.94
2023-01-12T00:25:13.838Z,100850.13
2023-01-12T00:27:17.907Z,100843.34
2023-01-12T00:29:19.687Z,100845.53
2023-01-12T00:31:21.408Z,100836.34
2023-01-12T00:33:27.367Z,100839.03
2023-01-12T00:35:29.044Z,100840.66
2023-01-12T00:37:30.671Z,100840.69
2023-01-12T00:39:32.505Z,100839.56
2023-01-12T00:41:46.451Z,100839.06
2023-01-12T00:43:48.123Z,100839.06
2023-01-12T00:45:51.684Z,100834.75
2023-01-12T00:47:53.354Z,100825.31
2023-01-12T00:49:56.743Z,100840.69
2023-01-12T00:51:58.503Z,100829.63
2023-01-12T00:54:00.271Z,100826.63
2023-01-12T00:56:02.306Z,100828.81
2023-01-12T00:58:06.876Z,100831.50
2023-01-12T01:00:09.911Z,100831.50
2023-01-12T01:02:13.146Z,100826.63
2023-01-12T01:04:14.890Z,100824.50
2023-01-12T01:06:17.978Z,100816.41
2023-01-12T01:08:19.582Z,100828.81
2023-01-12T01:10:21.336Z,100824.22
2023-01-12T01:12:23.084Z,100822.06
2023-01-12T01:14:25.469Z,100832.03
2023-01-12T01:16:27.294Z,100836.63
2023-01-12T01:18:29.073Z,100837.97
2023-01-12T01:20:33.874Z,100840.09
2023-01-12T01:22:36.921Z,100847.09
2023-01-12T01:24:38.521Z,100845.50
2023-01-12T01:26:40.895Z,100852.75
2023-01-12T01:28:43.307Z,100854.13
2023-01-12T01:30:45.573Z,100856.28
2023-01-12T01:32:47.468Z,100850.91
2023-01-12T01:34:50.109Z,100855.22
2023-01-12T01:36:51.765Z,100856.00
2023-01-12T01:38:54.847Z,100853.59
2023-01-12T01:40:56.607Z,100860.31
2023-01-12T01:42:58.564Z,100849.81
2023-01-12T01:45:02.887Z,100853.88
2023-01-12T01:47:14.653Z,100842.31
2023-01-12T01:49:30.484Z,100836.09
2023-01-12T01:51:32.211Z,100839.34
2023-01-12T01:53:36.158Z,100831.00
2023-01-12T01:55:43.020Z,100827.78
2023-01-12T01:57:49.316Z,100830.47
2023-01-12T01:59:56.928Z,100821.03
2023-01-12T02:01:59.453Z,100824.53
2023-01-12T02:04:02.296Z,100820.78
2023-01-12T02:06:06.653Z,100823.72
2023-01-12T02:08:15.547Z,100818.06
2023-01-12T02:10:17.576Z,100821.84
2023-01-12T02:12:20.598Z,100826.97
2023-01-12T02:14:22.226Z,100816.72
2023-01-12T02:16:27.369Z,100791.41
2023-01-12T02:18:35.877Z,100795.44
2023-01-12T02:20:52.394Z,100785.19
2023-01-12T02:23:17.967Z,100786.28
2023-01-12T02:25:47.778Z,100787.34
2023-01-12T02:28:11.707Z,100787.09
2023-01-12T02:30:49.311Z,100779.25
2023-01-12T02:33:14.029Z,100767.13
2023-01-12T02:35:24.798Z,100769.03
2023-01-12T02:37:38.745Z,100766.06
2023-01-12T02:39:44.886Z,100762.56
2023-01-12T02:41:53.864Z,100758.00
2023-01-12T02:43:55.813Z,100760.94
2023-01-12T02:46:04.805Z,100764.72
2023-01-12T02:48:13.280Z,100774.69
2023-01-12T02:50:23.929Z,100767.44
2023-01-12T02:52:30.334Z,100764.72
2023-01-12T02:54:34.861Z,100759.88
2023-01-12T02:56:40.502Z,100769.84
2023-01-12T02:58:46.901Z,100757.47
2023-01-12T03:00:51.377Z,100764.44
2023-01-12T03:02:54.437Z,100776.03
2023-01-12T03:04:57.592Z,100762.03
2023-01-12T03:07:35.187Z,100764.19
2023-01-12T03:09:41.824Z,100759.34
2023-01-12T03:11:44.453Z,100763.09
2023-01-12T03:13:50.353Z,100764.19
2023-01-12T03:15:55.857Z,100772.28
2023-01-12T03:18:00.338Z,100772.81
2023-01-12T03:20:10.814Z,100762.28
2023-01-12T03:22:15.208Z,100763.63
2023-01-12T03:24:20.959Z,100765.78
2023-01-12T03:26:25.618Z,100764.19
2023-01-12T03:28:33.257Z,100757.19
2023-01-12T03:30:38.837Z,100749.63
2023-01-12T03:32:41.369Z,100742.91
2023-01-12T03:34:43.163Z,100757.72
2023-01-12T03:36:57.343Z,100742.09
2023-01-12T03:39:06.166Z,100743.69
2023-01-12T03:41:13.693Z,100742.34
2023-01-12T03:43:20.883Z,100736.72
2023-01-12T03:45:36.404Z,100732.38
2023-01-12T03:47:41.738Z,100736.69
2023-01-12T03:49:47.707Z,100735.63
2023-01-12T03:51:53.194Z,100735.06
2023-01-12T03:53:57.429Z,100733.44
2023-01-12T03:56:05.799Z,100738.56
2023-01-12T03:58:07.440Z,100742.59
2023-01-12T04:00:12.507Z,100734.78
2023-01-12T04:02:14.469Z,100740.47
2023-01-12T04:04:16.147Z,100731.56
2023-01-12T04:06:17.894Z,100729.69
2023-01-12T04:08:20.965Z,100730.75
2023-01-12T04:10:22.633Z,100734.00
2023-01-12T04:12:24.257Z,100727.78
2023-01-12T04:14:25.972Z,100723.47
2023-01-12T04:16:27.609Z,100721.59
2023-01-12T04:18:29.194Z,100719.16
2023-01-12T04:20:30.842Z,100717.81
2023-01-12T04:22:32.489Z,100727.22
2023-01-12T04:24:35.500Z,100715.38
2023-01-12T04:26:37.178Z,100712.94
2023-01-12T04:28:38.879Z,100710.78
2023-01-12T04:30:40.527Z,100716.72
2023-01-12T04:32:43.231Z,100705.94
2023-01-12T04:34:44.926Z,100710.78
2023-01-12T04:36:46.608Z,100713.47
2023-01-12T04:38:48.277Z,100704.31
2023-01-12T04:40:54.952Z,100702.72
2023-01-12T04:42:56.864Z,100705.44
2023-01-12T04:44:58.468Z,100704.59
2023-01-12T04:47:00.040Z,100699.22
2023-01-12T04:49:01.692Z,100703.50
2023-01-12T04:51:03.930Z,100695.72
2023-01-12T04:53:07.105Z,100691.63
2023-01-12T04:55:09.165Z,100686.50
2023-01-12T04:57:12.168Z,100678.44
2023-01-12T04:59:16.768Z,100687.31
2023-01-12T05:01:19.708Z,100673.31
2023-01-12T05:03:21.445Z,100680.06
2023-01-12T05:05:23.066Z,100687.03
2023-01-12T05:07:24.702Z,100681.38
2023-01-12T05:09:28.691Z,100680.03
2023-01-12T05:11:30.562Z,100680.56
2023-01-12T05:13:41.019Z,100676.78
2023-01-12T05:15:42.806Z,100684.06
2023-01-12T05:17:44.564Z,100687.31
2023-01-12T05:19:48.986Z,100682.22
2023-01-12T05:21:51.048Z,100678.16
2023-01-12T05:23:53.122Z,100685.19
2023-01-12T05:25:58.648Z,100674.97
2023-01-12T05:28:04.834Z,100659.28
2023-01-12T05:30:09.689Z,100667.34
2023-01-12T05:32:11.324Z,100657.91
2023-01-12T05:34:13.447Z,100660.38
2023-01-12T05:36:16.232Z,100652.28
2023-01-12T05:38:18.064Z,100643.13
2023-01-12T05:40:20.369Z,100639.09
2023-01-12T05:42:21.964Z,100632.09
2023-01-12T05:44:23.704Z,100632.31
2023-01-12T05:46:29.568Z,100627.22
2023-01-12T05:48:32.185Z,100617.53
2023-01-12T05:50:33.846Z,100618.03
2023-01-12T05:52:35.598Z,100619.38
2023-01-12T05:54:37.342Z,100618.31
2023-01-12T05:56:38.946Z,100604.81
2023-01-12T05:58:42.625Z,100602.38
2023-01-12T06:00:44.300Z,100605.88
2023-01-12T06:02:47.595Z,100601.84
2023-01-12T06:04:49.654Z,100601.84
2023-01-12T06:06:51.423Z,100603.41
2023-01-12T06:08:53.764Z,100617.19
2023-01-12T06:10:55.469Z,100598.66
2023-01-12T06:12:57.477Z,100583.22
2023-01-12T06:14:59.082Z,100582.94
2023-01-12T06:17:00.794Z,100586.97
2023-01-12T06:19:04.109Z,100591.56
2023-01-12T06:21:08.100Z,100592.38
2023-01-12T06:23:09.788Z,100589.16
2023-01-12T06:25:14.545Z,100608.81
2023-01-12T06:27:16.508Z,100606.13
2023-01-12T06:29:18.379Z,100608.53
2023-01-12T06:31:20.120Z,100601.53
2023-01-12T06:33:21.885Z,100601.53
2023-01-12T06:35:25.101Z,100599.63
2023-01-12T06:37:26.786Z,100600.97
2023-01-12T06:39:28.491Z,100599.66
2023-01-12T06:41:30.116Z,100595.38
2023-01-12T06:43:31.788Z,100578.94
2023-01-12T06:45:33.990Z,100582.16
2023-01-12T06:47:44.360Z,100593.47
2023-01-12T06:49:46.034Z,100601.31
2023-01-12T06:51:49.427Z,100597.53
2023-01-12T06:53:51.439Z,100604.25
2023-01-12T06:55:53.073Z,100593.72
2023-01-12T06:57:54.837Z,100586.75
2023-01-12T06:59:56.742Z,100580.78
2023-01-12T07:01:58.521Z,100578.38
2023-01-12T07:04:00.475Z,100575.56
2023-01-12T07:06:02.470Z,100577.56
2023-01-12T07:08:06.291Z,100592.94
2023-01-12T07:10:09.166Z,100593.44
2023-01-12T07:12:11.403Z,100591.31
2023-01-12T07:14:19.437Z,100594.00
2023-01-12T07:16:21.289Z,100604.53
2023-01-12T07:18:22.999Z,100578.66
2023-01-12T07:20:25.542Z,100568.38
2023-01-12T07:22:27.181Z,100542.50
2023-01-12T07:24:32.782Z,100540.38
2023-01-12T07:26:34.565Z,100540.44
2023-01-12T07:28:36.394Z,100547.16
2023-01-12T07:30:38.130Z,100554.69
2023-01-12T07:32:39.881Z,100556.06
2023-01-12T07:34:41.455Z,100555.53
2023-01-12T07:36:44.447Z,100574.88
2023-01-12T07:38:46.780Z,100560.63
2023-01-12T07:40:50.249Z,100570.06
2023-01-12T07:42:58.599Z,100573.56
2023-01-12T07:45:07.640Z,100587.88
2023-01-12T07:47:09.686Z,100582.47
2023-01-12T07:49:15.940Z,100577.38
2023-01-12T07:51:20.244Z,100562.53
2023-01-12T07:53:22.321Z,100572.25
2023-01-12T07:55:25.459Z,100578.72
2023-01-12T07:57:28.623Z,100567.38
2023-01-12T07:59:30.428Z,100558.75
2023-01-12T08:01:33.914Z,100571.69
2023-01-12T08:03:35.913Z,100561.47
2023-01-12T08:05:41.567Z,100554.44
2023-01-12T08:07:44.705Z,100551.16
2023-01-12T08:09:49.755Z,100555.22
2023-01-12T08:11:52.212Z,100567.63
2023-01-12T08:13:56.997Z,100561.94
2023-01-12T08:16:05.294Z,100555.53
2023-01-12T08:20:34.174Z,100556.59
2023-01-12T08:22:48.593Z,100558.72
2023-01-12T08:24:57.156Z,100549.34
2023-01-12T08:27:05.389Z,100548.50
2023-01-12T08:29:13.150Z,100556.34
2023-01-12T08:31:28.839Z,100542.63
2023-01-12T08:33:30.891Z,100537.75
2023-01-12T08:35:35.373Z,100552.28
2023-01-12T08:37:42.626Z,100553.72
2023-01-12T08:40:06.580Z,100559.59
2023-01-12T08:45:08.690Z,100567.44
2023-01-12T08:47:17.217Z,100573.38
2023-01-12T08:49:23.575Z,100580.69
2023-01-12T08:53:45.288Z,100568.59
2023-01-12T08:55:56.403Z,100566.41
2023-01-12T08:57:59.876Z,100567.47
2023-01-12T09:00:02.440Z,100547.78
2023-01-12T09:02:07.310Z,100553.97
2023-01-12T09:06:44.759Z,100542.09
2023-01-12T09:08:47.125Z,100554.53
2023-01-12T09:13:24.616Z,100544.28
2023-01-12T09:15:26.300Z,100544.00
2023-01-12T09:17:29.935Z,100542.63
2023-01-12T09:19:31.685Z,100536.72
2023-01-12T09:21:38.686Z,100562.28
2023-01-12T09:23:40.516Z,100566.88
2023-01-12T09:25:42.242Z,100565.53
2023-01-12T09:27:51.046Z,100582.47
2023-01-12T09:34:58.008Z,100581.34
2023-01-12T09:37:01.494Z,100592.13
2023-01-12T09:39:26.199Z,100594.09
2023-01-12T09:41:30.967Z,100592.19
2023-01-12T09:43:32.765Z,100572.78
2023-01-12T09:47:56.492Z,100575.16
2023-01-12T09:50:09.022Z,100571.34
2023-01-12T09:54:37.743Z,100552.75
2023-01-12T09:59:48.882Z,100562.94
2023-01-12T10:01:53.230Z,100567.00
2023-01-12T10:04:00.797Z,100558.66
2023-01-12T10:08:30.715Z,100585.56
2023-01-12T10:10:32.789Z,100559.16
2023-01-12T10:12:38.655Z,100577.25
2023-01-12T10:15:10.725Z,100578.75
2023-01-12T10:17:29.960Z,100567.47
2023-01-12T10:19:43.444Z,100572.25
2023-01-12T10:22:17.114Z,100556.09
2023-01-12T10:24:21.862Z,100562.25
2023-01-12T10:26:26.094Z,100564.69
2023-01-12T10:28:30.143Z,100557.91
2023-01-12T10:30:34.104Z,100569.09
2023-01-12T10:32:42.017Z,100546.13
2023-01-12T10:34:52.418Z,100549.06
2023-01-12T10:36:55.947Z,100558.28
2023-01-12T10:38:59.948Z,100556.06
2023-01-12T10:41:20.484Z,100559.69
2023-01-12T10:43:22.488Z,100557.31
2023-01-12T10:45:24.763Z,100557.31
2023-01-12T10:47:26.570Z,100553.53
2023-01-12T10:49:28.348Z,100557.28
2023-01-12T10:56:38.048Z,100543.78
2023-01-12T11:01:31.997Z,100543.50
2023-01-12T11:03:39.120Z,100544.53
2023-01-12T11:05:40.857Z,100547.50
2023-01-12T11:07:49.632Z,100551.53
2023-01-12T11:09:51.816Z,100546.84
2023-01-12T11:11:55.284Z,100536.59
2023-01-12T11:13:59.606Z,100543.31
2023-01-12T11:16:09.451Z,100547.63
2023-01-12T11:18:27.895Z,100560.25
2023-01-12T11:20:34.329Z,100547.66
2023-01-12T11:22:37.597Z,100546.22
2023-01-12T11:24:46.562Z,100552.25
2023-01-12T11:26:54.713Z,100544.38
2023-01-12T11:29:01.864Z,100537.38
2023-01-12T11:31:12.322Z,100540.69
2023-01-12T11:33:19.927Z,100543.28
2023-01-12T11:35:29.701Z,100534.59
2023-01-12T11:37:37.374Z,100527.03
2023-01-12T11:39:42.577Z,100526.69
2023-01-12T11:41:49.556Z,100520.72
2023-01-12T11:43:58.723Z,100523.47
2023-01-12T11:46:08.090Z,100514.28
2023-01-12T11:48:23.194Z,100507.50
2023-01-12T11:50:28.435Z,100504.75
2023-01-12T11:52:30.506Z,100498.56
2023-01-12T11:54:32.397Z,100497.16
2023-01-12T11:57:18.155Z,100491.69
2023-01-12T11:59:26.965Z,100489.75
2023-01-12T12:01:37.839Z,100492.97
2023-01-12T12:03:57.995Z,100499.19
2023-01-12T12:06:13.189Z,100490.75
2023-01-12T12:08:31.496Z,100495.63
2023-01-12T12:10:43.742Z,100488.31
2023-01-12T12:13:04.000Z,100489.88
2023-01-12T12:15:20.885Z,100495.28
2023-01-12T12:17:34.639Z,100493.16
2023-01-12T12:19:46.896Z,100489.94
2023-01-12T12:21:50.757Z,100485.09
2023-01-12T12:24:02.745Z,100495.47
2023-01-12T12:26:13.807Z,100478.53
2023-01-12T12:28:38.527Z,100487.97
2023-01-12T12:31:10.075Z,100484.75
2023-01-12T12:33:22.384Z,100481.00
2023-01-12T12:35:41.646Z,100469.63
2023-01-12T12:37:52.503Z,100474.59
2023-01-12T12:39:56.908Z,100469.41
2023-01-12T12:42:14.288Z,100478.25
2023-01-12T12:44:35.853Z,100474.25
2023-01-12T12:46:52.538Z,100480.16
2023-01-12T12:49:07.140Z,100473.44
2023-01-12T12:51:09.612Z,100479.69
2023-01-12T12:53:27.347Z,100469.69
2023-01-12T12:55:29.797Z,100470.53
2023-01-12T12:57:31.534Z,100472.88
2023-01-12T12:59:56.743Z,100471.19
2023-01-12T13:02:00.440Z,100454.06
2023-01-12T13:04:03.929Z,100466.41
2023-01-12T13:06:20.231Z,100469.19
2023-01-12T13:08:24.296Z,100469.28
2023-01-12T13:10:30.862Z,100465.44
2023-01-12T13:12:33.869Z,100473.53
2023-01-12T13:14:37.261Z,100465.97
2023-01-12T13:16:50.400Z,100468.53
2023-01-12T13:19:13.844Z,100462.03
2023-01-12T13:21:45.018Z,100456.28
2023-01-12T13:23:50.048Z,100451.19
2023-01-12T13:25:56.658Z,100463.38
2023-01-12T13:28:18.186Z,100460.03
2023-01-12T13:30:35.761Z,100454.53
2023-01-12T13:32:58.768Z,100465.56
2023-01-12T13:35:00.863Z,100452.63
2023-01-12T13:37:15.717Z,100446.59
2023-01-12T13:39:20.396Z,100446.84
2023-01-12T13:41:26.425Z,100442.41
2023-01-12T13:43:32.985Z,100456.25
2023-01-12T13:45:36.282Z,100448.38
2023-01-12T13:47:38.591Z,100444.34
2023-01-12T13:49:47.611Z,100441.09
2023-01-12T13:51:56.435Z,100437.00
2023-01-12T13:53:59.681Z,100428.91
2023-01-12T13:56:04.098Z,100432.63
2023-01-12T13:58:16.822Z,100430.78
2023-01-12T14:00:20.955Z,100431.03
2023-01-12T14:02:23.111Z,100436.06
2023-01-12T14:04:41.491Z,100434.53
2023-01-12T14:06:55.839Z,100431.84
2023-01-12T14:09:12.078Z,100429.44
2023-01-12T14:11:33.607Z,100447.59
2023-01-12T14:13:54.056Z,100429.53
2023-01-12T14:15:59.989Z,100432.16
2023-01-12T14:18:04.531Z,100427.94
2023-01-12T14:20:14.713Z,100435.50
2023-01-12T14:22:19.791Z,100427.97
2023-01-12T14:24:22.810Z,100423.88
2023-01-12T14:26:24.778Z,100423.28
2023-01-12T14:28:28.987Z,100439.47
2023-01-12T14:30:32.342Z,100438.88
2023-01-12T14:32:34.060Z,100437.66
2023-01-12T14:34:36.994Z,100442.97
2023-01-12T14:36:45.298Z,100420.28
2023-01-12T14:38:50.100Z,100432.34
2023-01-12T14:40:58.153Z,100430.28
2023-01-12T14:43:02.013Z,100428.19
2023-01-12T14:45:21.343Z,100426.72
2023-01-12T14:47:24.678Z,100432.41
2023-01-12T14:49:28.467Z,100429.91
2023-01-12T14:51:32.434Z,100437.53
2023-01-12T14:53:38.732Z,100426.22
2023-01-12T14:55:41.909Z,100441.03
2023-01-12T14:57:47.582Z,100432.91
2023-01-12T14:59:49.708Z,100428.47
2023-01-12T15:01:53.819Z,100425.44
2023-01-12T15:03:55.878Z,100425.09
2023-01-12T15:05:57.751Z,100436.72
2023-01-12T15:08:01.522Z,100424.81
2023-01-12T15:10:25.324Z,100422.69
2023-01-12T15:12:44.222Z,100429.69
2023-01-12T15:14:45.904Z,100417.13
2023-01-12T15:16:47.611Z,100419.25
2023-01-12T15:18:49.785Z,100419.25
2023-01-12T15:20:51.609Z,100414.06
2023-01-12T15:22:53.357Z,100419.59
2023-01-12T15:24:55.999Z,100421.19
2023-01-12T15:27:06.103Z,100415.28
2023-01-12T15:29:12.616Z,100403.97
2023-01-12T15:31:20.454Z,100394.81
2023-01-12T15:33:22.170Z,100397.16
2023-01-12T15:35:25.893Z,100398.56
2023-01-12T15:37:27.769Z,100399.59
2023-01-12T15:39:29.486Z,100402.00
2023-01-12T15:41:32.180Z,100399.50
2023-01-12T15:43:33.877Z,100397.84
2023-01-12T15:45:39.878Z,100392.16
2023-01-12T15:47:41.590Z,100403.78
2023-01-12T15:49:48.503Z,100401.94
2023-01-12T15:51:51.777Z,100400.19
2023-01-12T15:53:53.503Z,100394.13
2023-01-12T15:55:55.121Z,100392.00
2023-01-12T15:57:56.969Z,100393.50
2023-01-12T15:59:59.029Z,100392.06
2023-01-12T16:02:04.000Z,100396.88
2023-01-12T16:04:40.295Z,100397.34
2023-01-12T16:06:29.447Z,100403.47
2023-01-12T16:08:31.353Z,100402.19
2023-01-12T16:10:32.918Z,100412.44
2023-01-12T16:12:34.683Z,100399.44
2023-01-12T16:14:36.913Z,100404.38
2023-01-12T16:16:41.413Z,100393.13
2023-01-12T16:18:48.127Z,100393.25
2023-01-12T16:20:50.179Z,100399.03
2023-01-12T16:22:54.479Z,100399.09
2023-01-12T16:24:56.402Z,100396.09
2023-01-12T16:26:58.595Z,100389.41
2023-01-12T16:29:00.422Z,100392.97
2023-01-12T16:31:05.949Z,100407.25
2023-01-12T16:33:07.730Z,100397.81
2023-01-12T16:35:13.482Z,100401.94
2023-01-12T16:37:17.091Z,100392.16
2023-01-12T16:39:18.805Z,100392.00
2023-01-12T16:41:20.492Z,100395.88
2023-01-12T16:43:25.029Z,100404.03
2023-01-12T16:45:26.872Z,100398.06
2023-01-12T16:47:30.858Z,100401.59
2023-01-12T16:49:34.369Z,100396.63
2023-01-12T16:51:38.749Z,100395.88
2023-01-12T16:53:40.742Z,100380.59
2023-01-12T16:55:44.594Z,100377.34
2023-01-12T16:57:46.539Z,100374.56
2023-01-12T16:59:48.299Z,100379.25
2023-01-12T17:01:50.687Z,100378.63
2023-01-12T17:03:54.805Z,100377.56
2023-01-12T17:05:56.633Z,100387.25
2023-01-12T17:07:59.947Z,100381.28
2023-01-12T17:10:01.807Z,100388.56
2023-01-12T17:12:06.317Z,100386.16
2023-01-12T17:14:13.235Z,100379.47
2023-01-12T17:16:15.077Z,100379.63
2023-01-12T17:18:17.001Z,100386.91
2023-01-12T17:20:19.273Z,100370.47
2023-01-12T17:22:21.391Z,100360.72
2023-01-12T17:24:24.826Z,100365.09
2023-01-12T17:26:26.669Z,100370.47
2023-01-12T17:28:30.571Z,100372.97
2023-01-12T17:30:32.514Z,100368.44
2023-01-12T17:32:34.407Z,100357.47
2023-01-12T17:34:38.434Z,100355.56
2023-01-12T17:36:40.973Z,100355.78
2023-01-12T17:38:42.665Z,100366.59
2023-01-12T17:40:45.732Z,100355.34
2023-01-12T17:42:47.278Z,100361.41
2023-01-12T17:44:51.052Z,100364.31
2023-01-12T17:46:52.753Z,100351.38
2023-01-12T17:48:54.522Z,100361.09
2023-01-12T17:50:56.193Z,100362.41
2023-01-12T17:52:57.898Z,100355.91
2023-01-12T17:54:59.619Z,100366.50
2023-01-12T17:57:02.932Z,100367.81
2023-01-12T17:59:05.444Z,100365.09
2023-01-12T18:01:11.262Z,100365.34
2023-01-12T18:03:13.257Z,100365.09
2023-01-12T18:05:15.375Z,100365.34
2023-01-12T18:07:20.341Z,100359.44
2023-01-12T18:09:22.091Z,100357.66
2023-01-12T18:11:24.457Z,100354.38
2023-01-12T18:13:30.365Z,100362.66
2023-01-12T18:15:32.419Z,100357.81
2023-01-12T18:17:34.635Z,100344.25
2023-01-12T18:19:36.485Z,100349.06
2023-01-12T18:21:38.916Z,100341.03
2023-01-12T18:23:41.011Z,100354.47
2023-01-12T18:25:42.741Z,100342.56
2023-01-12T18:27:47.080Z,100333.38
2023-01-12T18:29:50.103Z,100331.56
2023-01-12T18:31:51.868Z,100343.44
2023-01-12T18:33:56.848Z,100336.38
2023-01-12T18:35:58.586Z,100343.75
2023-01-12T18:38:00.255Z,100332.47
2023-01-12T18:40:02.069Z,100335.91
2023-01-12T18:42:04.144Z,100331.13
2023-01-12T18:44:06.215Z,100338.69
2023-01-12T18:46:09.424Z,100339.63
2023-01-12T18:48:14.062Z,100328.47
2023-01-12T18:50:17.095Z,100339.06
2023-01-12T18:52:18.879Z,100333.31
2023-01-12T18:54:20.709Z,100341.91
2023-01-12T18:56:22.704Z,100338.97
2023-01-12T18:58:25.944Z,100331.03
2023-01-12T19:00:27.922Z,100348.69
2023-01-12T19:02:31.348Z,100338.97
2023-01-12T19:04:33.182Z,100346.19
2023-01-12T19:06:35.223Z,100345.63
2023-01-12T19:08:37.367Z,100339.50
2023-01-12T19:10:39.472Z,100347.91
2023-01-12T19:12:41.225Z,100359.03
2023-01-12T19:14:43.098Z,100339.31
2023-01-12T19:16:45.183Z,100343.50
2023-01-12T19:18:48.647Z,100334.56
2023-01-12T19:20:50.370Z,100331.91
2023-01-12T19:22:52.048Z,100335.34
2023-01-12T19:24:53.811Z,100336.00
2023-01-12T19:26:55.578Z,100342.50
2023-01-12T19:28:57.410Z,100334.81
2023-01-12T19:31:00.250Z,100340.81
2023-01-12T19:33:04.973Z,100338.47
2023-01-12T19:35:11.183Z,100335.28
2023-01-12T19:37:13.332Z,100336.03
2023-01-12T19:39:15.080Z,100329.88
2023-01-12T19:41:16.802Z,100335.50
2023-01-12T19:43:20.785Z,100334.13
2023-01-12T19:45:22.693Z,100332.50
2023-01-12T19:47:26.700Z,100335.78
2023-01-12T19:49:28.515Z,100321.19
2023-01-12T19:51:31.612Z,100340.69
2023-01-12T19:53:33.974Z,100329.28
2023-01-12T19:55:35.791Z,100316.25
2023-01-12T19:57:38.947Z,100314.13
2023-01-12T19:59:40.738Z,100300.25
2023-01-12T20:01:42.524Z,100326.59
2023-01-12T20:03:44.177Z,100300.66
2023-01-12T20:05:49.279Z,100299.16
2023-01-12T20:07:53.237Z,100304.13
2023-01-12T20:09:55.280Z,100290.63
2023-01-12T20:11:57.028Z,100295.75
2023-01-12T20:13:59.027Z,100284.03
2023-01-12T20:16:06.000Z,100290.00
2023-01-12T20:18:08.784Z,100299.72
2023-01-12T20:20:12.301Z,100290.53
2023-01-12T20:22:13.971Z,100291.84
2023-01-12T20:24:17.107Z,100293.75
2023-01-12T20:26:18.913Z,100291.03
2023-01-12T20:28:20.583Z,100298.06
2023-01-12T20:30:37.023Z,100285.69
2023-01-12T20:32:40.161Z,100273.81
2023-01-12T20:34:41.917Z,100272.03
2023-01-12T20:36:43.711Z,100281.03
2023-01-12T20:38:45.575Z,100280.28
2023-01-12T20:40:48.957Z,100262.72
2023-01-12T20:42:50.748Z,100272.94
2023-01-12T20:44:52.966Z,100267.47
2023-01-12T20:46:54.799Z,100272.84
2023-01-12T20:48:56.459Z,100268.56
2023-01-12T20:50:58.207Z,100277.16
2023-01-12T20:53:05.659Z,100283.50
2023-01-12T20:55:08.080Z,100265.69
2023-01-12T20:57:11.146Z,100266.66
2023-01-12T20:59:12.790Z,100268.56
2023-01-12T21:01:17.782Z,100258.56
2023-01-12T21:03:19.830Z,100263.88
2023-01-12T21:05:21.932Z,100276.88
2023-01-12T21:07:23.753Z,100271.09
2023-01-12T21:09:27.092Z,100268.63
2023-01-12T21:11:29.099Z,100260.22
2023-01-12T21:13:32.359Z,100268.47
2023-01-12T21:15:34.372Z,100258.19
2023-01-12T21:17:36.037Z,100254.03
2023-01-12T21:19:37.717Z,100253.88
2023-01-12T21:21:39.403Z,100254.47
2023-01-12T21:23:41.158Z,100254.47
2023-01-12T21:25:43.258Z,100260.59
2023-01-12T21:27:44.967Z,100265.94
2023-01-12T21:29:48.150Z,100257.22
2023-01-12T21:31:49.907Z,100252.28
2023-01-12T21:33:51.692Z,100259.56
2023-01-12T21:35:57.177Z,100244.81
2023-01-12T21:38:01.927Z,100238.13
2023-01-12T21:40:04.079Z,100230.03
2023-01-12T21:42:05.835Z,100238.34
2023-01-12T21:44:10.614Z,100226.38
2023-01-12T21:46:14.136Z,100234.03
2023-01-12T21:48:17.714Z,100229.22
2023-01-12T21:50:19.430Z,100223.63
2023-01-12T21:52:21.135Z,100237.25
2023-01-12T21:54:23.042Z,100234.53
2023-01-12T21:56:24.781Z,100237.41
2023-01-12T21:58:27.985Z,100232.88
2023-01-12T22:00:29.961Z,100233.19
2023-01-12T22:02:33.074Z,100229.13
2023-01-12T22:04:34.741Z,100220.25
2023-01-12T22:06:36.462Z,100226.97
2023-01-12T22:08:40.094Z,100225.56
2023-01-12T22:10:41.756Z,100222.06
2023-01-12T22:12:43.440Z,100221.84
2023-01-12T22:14:45.147Z,100225.34
2023-01-12T22:16:46.979Z,100210.75
2023-01-12T22:18:50.530Z,100223.16
2023-01-12T22:20:52.500Z,100219.78
2023-01-12T22:22:57.428Z,100224.09
2023-01-12T22:24:59.076Z,100217.16
2023-01-12T22:27:00.747Z,100225.72
2023-01-12T22:29:02.447Z,100220.50
2023-01-12T22:31:08.082Z,100220.81
2023-01-12T22:33:09.892Z,100223.94
2023-01-12T22:35:15.807Z,100215.25
2023-01-12T22:37:19.111Z,100223.38
2023-01-12T22:39:20.777Z,100209.06
2023-01-12T22:41:22.426Z,100210.16
2023-01-12T22:43:24.126Z,100207.38
2023-01-12T22:45:25.929Z,100207.53
2023-01-12T22:47:27.800Z,100205.66
2023-01-12T22:49:29.564Z,100211.25
2023-01-12T22:51:32.848Z,100206.56
2023-01-12T22:53:35.085Z,100214.16
2023-01-12T22:55:38.251Z,100213.84
2023-01-12T22:57:41.042Z,100211.59
2023-01-12T22:59:42.826Z,100214.09
2023-01-12T23:01:44.750Z,100208.28
2023-01-12T23:03:47.201Z,100208.22
2023-01-12T23:05:50.344Z,100201.38
2023-01-12T23:07:53.329Z,100192.69
2023-01-12T23:09:55.003Z,100199.47
2023-01-12T23:11:56.578Z,100186.81
2023-01-12T23:13:58.335Z,100186.16
2023-01-12T23:16:04.762Z,100188.44
2023-01-12T23:18:07.327Z,100185.44
2023-01-12T23:20:12.217Z,100183.97
2023-01-12T23:22:13.821Z,100174.25
2023-01-12T23:24:19.815Z,100180.97
2023-01-12T23:26:26.276Z,100171.13
2023-01-12T23:28:29.775Z,100173.44
2023-01-12T23:30:31.712Z,100171.66
2023-01-12T23:32:33.278Z,100170.81
2023-01-12T23:34:34.968Z,100175.44
2023-01-12T23:36:36.651Z,100169.84
2023-01-12T23:38:38.407Z,100177.75
2023-01-12T23:40:41.382Z,100184.47
2023-01-12T23:42:43.049Z,100173.25
2023-01-12T23:44:44.638Z,100176.94
2023-01-12T23:46:46.283Z,100162.66
2023-01-12T23:48:48.486Z,100158.84
2023-01-12T23:50:50.163Z,100144.91
2023-01-12T23:52:53.172Z,100151.91
2023-01-12T23:54:56.895Z,100158.91
2023-01-12T23:56:59.937Z,100145.84
2023-01-12T23:59:01.678Z,100155.19
